sensor_id;sensor_type;location;lat;lon;timestamp;temperature;humidity
4856;DHT22;2442;48.676;7.986;2022-10-04T00:02:22;6.50;99.90
4856;DHT22;2442;48.676;7.986;2022-10-04T00:04:55;6.40;99.90
4856;DHT22;2442;48.676;7.986;2022-10-04T00:07:30;6.40;99.90
4856;DHT22;2442;48.676;7.986;2022-10-04T00:10:04;6.50;99.90
4856;DHT22;2442;48.676;7.986;2022-10-04T00:12:45;6.50;99.90
4856;DHT22;2442;48.676;7.986;2022-10-04T00:15:18;6.40;99.90
4856;DHT22;2442;48.676;7.986;2022-10-04T00:18:05;6.30;99.90
4856;DHT22;2442;48.676;7.986;2022-10-04T00:20:58;6.30;99.90
4856;DHT22;2442;48.676;7.986;2022-10-04T00:23:53;6.30;99.90
4856;DHT22;2442;48.676;7.986;2022-10-04T00:27:09;6.30;99.90
4856;DHT22;2442;48.676;7.986;2022-10-04T00:29:38;6.30;99.90
4856;DHT22;2442;48.676;7.986;2022-10-04T00:32:27;6.20;99.90
4856;DHT22;2442;48.676;7.986;2022-10-04T00:34:57;6.20;99.90
4856;DHT22;2442;48.676;7.986;2022-10-04T00:37:31;6.20;99.90
4856;DHT22;2442;48.676;7.986;2022-10-04T00:40:24;6.20;99.90
4856;DHT22;2442;48.676;7.986;2022-10-04T00:42:57;6.10;99.90
4856;DHT22;2442;48.676;7.986;2022-10-04T00:45:33;6.10;99.90
4856;DHT22;2442;48.676;7.986;2022-10-04T00:48:26;6.10;99.90
4856;DHT22;2442;48.676;7.986;2022-10-04T00:51:12;6.10;99.90
4856;DHT22;2442;48.676;7.986;2022-10-04T00:54:01;6.00;99.90
4856;DHT22;2442;48.676;7.986;2022-10-04T00:56:37;5.90;99.90
4856;DHT22;2442;48.676;7.986;2022-10-04T00:59:28;6.00;99.90
4856;DHT22;2442;48.676;7.986;2022-10-04T01:02:02;6.10;99.90
4856;DHT22;2442;48.676;7.986;2022-10-04T01:04:40;6.20;99.90
4856;DHT22;2442;48.676;7.986;2022-10-04T01:07:11;6.10;99.90
4856;DHT22;2442;48.676;7.986;2022-10-04T01:09:46;6.10;99.90
4856;DHT22;2442;48.676;7.986;2022-10-04T01:12:25;6.20;99.90
4856;DHT22;2442;48.676;7.986;2022-10-04T01:15:03;6.10;99.90
4856;DHT22;2442;48.676;7.986;2022-10-04T01:17:33;6.10;99.90
4856;DHT22;2442;48.676;7.986;2022-10-04T01:20:00;6.10;99.90
4856;DHT22;2442;48.676;7.986;2022-10-04T01:22:36;6.00;99.90
4856;DHT22;2442;48.676;7.986;2022-10-04T01:25:06;6.10;99.90
4856;DHT22;2442;48.676;7.986;2022-10-04T01:27:40;6.00;99.90
4856;DHT22;2442;48.676;7.986;2022-10-04T01:30:09;6.00;99.90
4856;DHT22;2442;48.676;7.986;2022-10-04T01:32:38;5.90;99.90
4856;DHT22;2442;48.676;7.986;2022-10-04T01:35:07;5.90;99.90
4856;DHT22;2442;48.676;7.986;2022-10-04T01:37:38;5.90;99.90
4856;DHT22;2442;48.676;7.986;2022-10-04T01:40:06;5.90;99.90
4856;DHT22;2442;48.676;7.986;2022-10-04T01:42:39;5.90;99.90
4856;DHT22;2442;48.676;7.986;2022-10-04T01:45:14;5.90;99.90
4856;DHT22;2442;48.676;7.986;2022-10-04T01:47:49;6.00;99.90
4856;DHT22;2442;48.676;7.986;2022-10-04T01:50:23;5.90;99.90
4856;DHT22;2442;48.676;7.986;2022-10-04T01:53:05;5.80;99.90
4856;DHT22;2442;48.676;7.986;2022-10-04T01:55:39;5.80;99.90
4856;DHT22;2442;48.676;7.986;2022-10-04T01:58:11;5.80;99.90
4856;DHT22;2442;48.676;7.986;2022-10-04T02:00:46;5.80;99.90
4856;DHT22;2442;48.676;7.986;2022-10-04T02:03:19;5.80;99.90
4856;DHT22;2442;48.676;7.986;2022-10-04T02:05:51;5.70;99.90
4856;DHT22;2442;48.676;7.986;2022-10-04T02:08:26;5.70;99.90
4856;DHT22;2442;48.676;7.986;2022-10-04T02:10:55;5.60;99.90
4856;DHT22;2442;48.676;7.986;2022-10-04T02:13:24;5.60;99.90
4856;DHT22;2442;48.676;7.986;2022-10-04T02:15:54;5.70;99.90
4856;DHT22;2442;48.676;7.986;2022-10-04T02:18:22;5.60;99.90
4856;DHT22;2442;48.676;7.986;2022-10-04T02:20:51;5.60;99.90
4856;DHT22;2442;48.676;7.986;2022-10-04T02:23:21;5.60;99.90
4856;DHT22;2442;48.676;7.986;2022-10-04T02:25:49;5.60;99.90
4856;DHT22;2442;48.676;7.986;2022-10-04T02:28:17;5.80;99.90
4856;DHT22;2442;48.676;7.986;2022-10-04T02:30:47;5.80;99.90
4856;DHT22;2442;48.676;7.986;2022-10-04T02:33:29;5.70;99.90
4856;DHT22;2442;48.676;7.986;2022-10-04T02:35:56;5.60;99.90
4856;DHT22;2442;48.676;7.986;2022-10-04T02:38:27;5.60;99.90
4856;DHT22;2442;48.676;7.986;2022-10-04T02:41:02;5.50;99.90
4856;DHT22;2442;48.676;7.986;2022-10-04T02:43:36;5.40;99.90
4856;DHT22;2442;48.676;7.986;2022-10-04T02:46:08;5.50;99.90
4856;DHT22;2442;48.676;7.986;2022-10-04T02:48:46;5.70;99.90
4856;DHT22;2442;48.676;7.986;2022-10-04T02:51:18;5.70;99.90
4856;DHT22;2442;48.676;7.986;2022-10-04T02:53:55;5.80;99.90
4856;DHT22;2442;48.676;7.986;2022-10-04T02:56:29;5.70;99.90
4856;DHT22;2442;48.676;7.986;2022-10-04T02:59:00;5.60;99.90
4856;DHT22;2442;48.676;7.986;2022-10-04T03:01:38;5.60;99.90
4856;DHT22;2442;48.676;7.986;2022-10-04T03:04:10;5.60;99.90
4856;DHT22;2442;48.676;7.986;2022-10-04T03:06:40;5.60;99.90
4856;DHT22;2442;48.676;7.986;2022-10-04T03:09:09;5.70;99.90
4856;DHT22;2442;48.676;7.986;2022-10-04T03:11:38;5.80;99.90
4856;DHT22;2442;48.676;7.986;2022-10-04T03:14:10;5.80;99.90
4856;DHT22;2442;48.676;7.986;2022-10-04T03:16:41;5.90;99.90
4856;DHT22;2442;48.676;7.986;2022-10-04T03:19:11;5.90;99.90
4856;DHT22;2442;48.676;7.986;2022-10-04T03:21:39;6.10;99.90
4856;DHT22;2442;48.676;7.986;2022-10-04T03:24:10;6.10;99.90
4856;DHT22;2442;48.676;7.986;2022-10-04T03:26:43;6.00;99.90
4856;DHT22;2442;48.676;7.986;2022-10-04T03:29:13;6.00;99.90
4856;DHT22;2442;48.676;7.986;2022-10-04T03:31:43;6.00;99.90
4856;DHT22;2442;48.676;7.986;2022-10-04T03:34:13;6.10;99.90
4856;DHT22;2442;48.676;7.986;2022-10-04T03:36:42;6.00;99.90
4856;DHT22;2442;48.676;7.986;2022-10-04T03:39:10;6.00;99.90
4856;DHT22;2442;48.676;7.986;2022-10-04T03:41:39;6.00;99.90
4856;DHT22;2442;48.676;7.986;2022-10-04T03:44:12;5.90;99.90
4856;DHT22;2442;48.676;7.986;2022-10-04T03:46:41;5.90;99.90
4856;DHT22;2442;48.676;7.986;2022-10-04T03:49:11;5.90;99.90
4856;DHT22;2442;48.676;7.986;2022-10-04T03:51:45;5.90;99.90
4856;DHT22;2442;48.676;7.986;2022-10-04T03:54:17;5.90;99.90
4856;DHT22;2442;48.676;7.986;2022-10-04T03:56:47;5.80;99.90
4856;DHT22;2442;48.676;7.986;2022-10-04T03:59:18;5.90;99.90
4856;DHT22;2442;48.676;7.986;2022-10-04T04:01:48;5.70;99.90
4856;DHT22;2442;48.676;7.986;2022-10-04T04:04:19;5.60;99.90
4856;DHT22;2442;48.676;7.986;2022-10-04T04:06:52;5.70;99.90
4856;DHT22;2442;48.676;7.986;2022-10-04T04:09:31;5.70;99.90
4856;DHT22;2442;48.676;7.986;2022-10-04T04:12:09;5.70;99.90
4856;DHT22;2442;48.676;7.986;2022-10-04T04:14:49;5.80;99.90
4856;DHT22;2442;48.676;7.986;2022-10-04T04:17:35;5.70;99.90
4856;DHT22;2442;48.676;7.986;2022-10-04T04:20:16;5.70;99.90
4856;DHT22;2442;48.676;7.986;2022-10-04T04:22:59;5.60;99.90
4856;DHT22;2442;48.676;7.986;2022-10-04T04:25:31;5.60;99.90
4856;DHT22;2442;48.676;7.986;2022-10-04T04:28:04;5.70;99.90
4856;DHT22;2442;48.676;7.986;2022-10-04T04:30:43;5.70;99.90
4856;DHT22;2442;48.676;7.986;2022-10-04T04:33:18;5.70;99.90
4856;DHT22;2442;48.676;7.986;2022-10-04T04:35:53;5.80;99.90
4856;DHT22;2442;48.676;7.986;2022-10-04T04:38:23;5.80;99.90
4856;DHT22;2442;48.676;7.986;2022-10-04T04:40:51;5.70;99.90
4856;DHT22;2442;48.676;7.986;2022-10-04T04:43:20;5.80;99.90
4856;DHT22;2442;48.676;7.986;2022-10-04T04:45:52;5.80;99.90
4856;DHT22;2442;48.676;7.986;2022-10-04T04:48:22;5.70;99.90
4856;DHT22;2442;48.676;7.986;2022-10-04T04:50:53;5.80;99.90
4856;DHT22;2442;48.676;7.986;2022-10-04T04:53:22;5.90;99.90
4856;DHT22;2442;48.676;7.986;2022-10-04T04:55:53;5.80;99.90
4856;DHT22;2442;48.676;7.986;2022-10-04T04:58:25;5.70;99.90
4856;DHT22;2442;48.676;7.986;2022-10-04T05:01:00;5.60;99.90
4856;DHT22;2442;48.676;7.986;2022-10-04T05:03:30;5.60;99.90
4856;DHT22;2442;48.676;7.986;2022-10-04T05:05:59;5.50;99.90
4856;DHT22;2442;48.676;7.986;2022-10-04T05:08:30;5.60;99.90
4856;DHT22;2442;48.676;7.986;2022-10-04T05:11:03;5.60;99.90
4856;DHT22;2442;48.676;7.986;2022-10-04T05:13:38;5.60;99.90
4856;DHT22;2442;48.676;7.986;2022-10-04T05:16:12;5.70;99.90
4856;DHT22;2442;48.676;7.986;2022-10-04T05:18:41;5.80;99.90
4856;DHT22;2442;48.676;7.986;2022-10-04T05:21:13;6.00;99.90
4856;DHT22;2442;48.676;7.986;2022-10-04T05:23:41;5.70;99.90
4856;DHT22;2442;48.676;7.986;2022-10-04T05:26:12;5.60;99.90
4856;DHT22;2442;48.676;7.986;2022-10-04T05:28:40;5.60;99.90
4856;DHT22;2442;48.676;7.986;2022-10-04T05:31:31;5.60;99.90
4856;DHT22;2442;48.676;7.986;2022-10-04T05:34:14;5.40;99.90
4856;DHT22;2442;48.676;7.986;2022-10-04T05:36:53;5.60;99.90
4856;DHT22;2442;48.676;7.986;2022-10-04T05:39:29;5.60;99.90
4856;DHT22;2442;48.676;7.986;2022-10-04T05:42:09;5.60;99.90
4856;DHT22;2442;48.676;7.986;2022-10-04T05:44:45;5.60;99.90
4856;DHT22;2442;48.676;7.986;2022-10-04T05:47:18;5.60;99.90
4856;DHT22;2442;48.676;7.986;2022-10-04T05:49:50;5.60;99.90
4856;DHT22;2442;48.676;7.986;2022-10-04T05:52:26;5.60;99.90
4856;DHT22;2442;48.676;7.986;2022-10-04T05:55:15;5.80;99.90
4856;DHT22;2442;48.676;7.986;2022-10-04T06:01:03;5.70;99.90
4856;DHT22;2442;48.676;7.986;2022-10-04T06:06:46;5.80;99.90
4856;DHT22;2442;48.676;7.986;2022-10-04T06:09:35;5.90;99.90
4856;DHT22;2442;48.676;7.986;2022-10-04T06:12:12;5.90;99.90
4856;DHT22;2442;48.676;7.986;2022-10-04T06:15:01;5.90;99.90
4856;DHT22;2442;48.676;7.986;2022-10-04T06:18:18;6.10;99.90
4856;DHT22;2442;48.676;7.986;2022-10-04T06:21:17;6.10;99.90
4856;DHT22;2442;48.676;7.986;2022-10-04T06:23:53;6.10;99.90
4856;DHT22;2442;48.676;7.986;2022-10-04T06:26:27;6.10;99.90
4856;DHT22;2442;48.676;7.986;2022-10-04T06:29:00;6.10;99.90
4856;DHT22;2442;48.676;7.986;2022-10-04T06:32:00;6.10;99.90
4856;DHT22;2442;48.676;7.986;2022-10-04T06:34:58;6.00;99.90
4856;DHT22;2442;48.676;7.986;2022-10-04T06:41:03;6.10;99.90
4856;DHT22;2442;48.676;7.986;2022-10-04T06:44:05;6.10;99.90
4856;DHT22;2442;48.676;7.986;2022-10-04T06:46:47;6.00;99.90
4856;DHT22;2442;48.676;7.986;2022-10-04T06:49:28;6.10;99.90
4856;DHT22;2442;48.676;7.986;2022-10-04T06:52:17;6.10;99.90
4856;DHT22;2442;48.676;7.986;2022-10-04T06:55:08;6.20;99.90
4856;DHT22;2442;48.676;7.986;2022-10-04T06:58:17;6.20;99.90
4856;DHT22;2442;48.676;7.986;2022-10-04T07:00:58;6.20;99.90
4856;DHT22;2442;48.676;7.986;2022-10-04T07:03:36;6.30;99.90
4856;DHT22;2442;48.676;7.986;2022-10-04T07:06:07;6.40;99.90
4856;DHT22;2442;48.676;7.986;2022-10-04T07:08:39;6.40;99.90
4856;DHT22;2442;48.676;7.986;2022-10-04T07:11:15;6.30;99.90
4856;DHT22;2442;48.676;7.986;2022-10-04T07:13:50;6.40;99.90
4856;DHT22;2442;48.676;7.986;2022-10-04T07:16:31;6.60;99.90
4856;DHT22;2442;48.676;7.986;2022-10-04T07:19:12;6.60;99.90
4856;DHT22;2442;48.676;7.986;2022-10-04T07:21:56;6.60;99.90
4856;DHT22;2442;48.676;7.986;2022-10-04T07:24:37;6.80;99.90
4856;DHT22;2442;48.676;7.986;2022-10-04T07:27:16;6.80;99.90
4856;DHT22;2442;48.676;7.986;2022-10-04T07:29:52;6.90;99.90
4856;DHT22;2442;48.676;7.986;2022-10-04T07:32:22;6.80;99.90
4856;DHT22;2442;48.676;7.986;2022-10-04T07:34:56;6.90;99.90
4856;DHT22;2442;48.676;7.986;2022-10-04T07:37:26;6.90;99.90
4856;DHT22;2442;48.676;7.986;2022-10-04T07:39:58;6.90;99.90
4856;DHT22;2442;48.676;7.986;2022-10-04T07:42:32;6.90;99.90
4856;DHT22;2442;48.676;7.986;2022-10-04T07:45:11;7.20;99.90
4856;DHT22;2442;48.676;7.986;2022-10-04T07:47:40;7.20;99.90
4856;DHT22;2442;48.676;7.986;2022-10-04T07:50:23;7.40;99.90
4856;DHT22;2442;48.676;7.986;2022-10-04T07:52:56;7.50;99.90
4856;DHT22;2442;48.676;7.986;2022-10-04T07:55:36;7.50;99.90
4856;DHT22;2442;48.676;7.986;2022-10-04T07:58:29;7.60;99.90
4856;DHT22;2442;48.676;7.986;2022-10-04T08:01:06;7.70;99.90
4856;DHT22;2442;48.676;7.986;2022-10-04T08:04:03;7.90;99.90
4856;DHT22;2442;48.676;7.986;2022-10-04T08:06:37;8.20;99.90
4856;DHT22;2442;48.676;7.986;2022-10-04T08:09:22;8.10;99.90
4856;DHT22;2442;48.676;7.986;2022-10-04T08:12:00;8.10;99.90
4856;DHT22;2442;48.676;7.986;2022-10-04T08:14:45;8.00;99.90
4856;DHT22;2442;48.676;7.986;2022-10-04T08:17:34;8.10;99.90
4856;DHT22;2442;48.676;7.986;2022-10-04T08:20:22;8.20;99.90
4856;DHT22;2442;48.676;7.986;2022-10-04T08:23:22;8.20;99.90
4856;DHT22;2442;48.676;7.986;2022-10-04T08:26:06;8.20;99.90
4856;DHT22;2442;48.676;7.986;2022-10-04T08:28:48;8.00;99.90
4856;DHT22;2442;48.676;7.986;2022-10-04T08:31:43;8.20;99.90
4856;DHT22;2442;48.676;7.986;2022-10-04T08:34:29;8.20;99.90
4856;DHT22;2442;48.676;7.986;2022-10-04T08:37:16;8.20;99.90
4856;DHT22;2442;48.676;7.986;2022-10-04T08:40:00;8.40;99.90
4856;DHT22;2442;48.676;7.986;2022-10-04T08:46:30;8.50;99.90
4856;DHT22;2442;48.676;7.986;2022-10-04T08:49:41;8.30;99.90
4856;DHT22;2442;48.676;7.986;2022-10-04T08:52:37;8.40;99.90
4856;DHT22;2442;48.676;7.986;2022-10-04T08:55:37;8.40;99.90
4856;DHT22;2442;48.676;7.986;2022-10-04T09:05:17;8.80;99.90
4856;DHT22;2442;48.676;7.986;2022-10-04T09:08:08;8.80;99.90
4856;DHT22;2442;48.676;7.986;2022-10-04T09:10:57;8.80;99.90
4856;DHT22;2442;48.676;7.986;2022-10-04T09:13:45;8.70;99.90
4856;DHT22;2442;48.676;7.986;2022-10-04T09:16:18;8.80;99.90
4856;DHT22;2442;48.676;7.986;2022-10-04T09:19:01;8.90;99.90
4856;DHT22;2442;48.676;7.986;2022-10-04T09:22:15;9.00;99.90
4856;DHT22;2442;48.676;7.986;2022-10-04T09:35:21;9.30;99.90
4856;DHT22;2442;48.676;7.986;2022-10-04T09:38:25;9.50;99.90
4856;DHT22;2442;48.676;7.986;2022-10-04T09:41:27;9.60;99.90
4856;DHT22;2442;48.676;7.986;2022-10-04T09:47:28;10.30;99.90
4856;DHT22;2442;48.676;7.986;2022-10-04T09:50:35;10.40;99.90
4856;DHT22;2442;48.676;7.986;2022-10-04T09:53:31;10.10;99.90
4856;DHT22;2442;48.676;7.986;2022-10-04T09:56:46;10.50;99.90
4856;DHT22;2442;48.676;7.986;2022-10-04T09:59:42;10.80;99.90
4856;DHT22;2442;48.676;7.986;2022-10-04T10:03:12;10.70;99.90
4856;DHT22;2442;48.676;7.986;2022-10-04T10:06:22;10.50;99.90
4856;DHT22;2442;48.676;7.986;2022-10-04T10:09:09;10.60;99.90
4856;DHT22;2442;48.676;7.986;2022-10-04T10:11:50;10.70;99.90
4856;DHT22;2442;48.676;7.986;2022-10-04T10:15:02;10.80;99.90
4856;DHT22;2442;48.676;7.986;2022-10-04T10:17:40;10.70;99.90
4856;DHT22;2442;48.676;7.986;2022-10-04T10:20:27;10.70;99.90
4856;DHT22;2442;48.676;7.986;2022-10-04T10:23:30;10.50;99.90
4856;DHT22;2442;48.676;7.986;2022-10-04T10:26:28;10.90;99.90
4856;DHT22;2442;48.676;7.986;2022-10-04T10:32:38;11.20;99.90
4856;DHT22;2442;48.676;7.986;2022-10-04T10:35:25;11.60;99.90
4856;DHT22;2442;48.676;7.986;2022-10-04T10:41:20;12.30;99.90
4856;DHT22;2442;48.676;7.986;2022-10-04T10:44:16;12.70;99.90
4856;DHT22;2442;48.676;7.986;2022-10-04T10:47:05;12.50;99.90
4856;DHT22;2442;48.676;7.986;2022-10-04T10:49:52;12.90;99.90
4856;DHT22;2442;48.676;7.986;2022-10-04T10:56:29;13.60;99.90
4856;DHT22;2442;48.676;7.986;2022-10-04T11:06:10;14.30;99.90
4856;DHT22;2442;48.676;7.986;2022-10-04T11:12:38;14.20;99.90
4856;DHT22;2442;48.676;7.986;2022-10-04T11:22:14;14.50;99.90
4856;DHT22;2442;48.676;7.986;2022-10-04T11:28:04;14.60;99.90
4856;DHT22;2442;48.676;7.986;2022-10-04T11:31:15;14.80;99.90
4856;DHT22;2442;48.676;7.986;2022-10-04T11:34:23;15.00;99.90
4856;DHT22;2442;48.676;7.986;2022-10-04T11:37:07;15.30;99.90
4856;DHT22;2442;48.676;7.986;2022-10-04T11:40:10;14.80;99.90
4856;DHT22;2442;48.676;7.986;2022-10-04T11:42:58;14.70;99.90
4856;DHT22;2442;48.676;7.986;2022-10-04T11:45:55;14.70;99.90
4856;DHT22;2442;48.676;7.986;2022-10-04T11:48:47;14.50;99.90
4856;DHT22;2442;48.676;7.986;2022-10-04T11:55:15;14.20;99.90
4856;DHT22;2442;48.676;7.986;2022-10-04T11:57:54;14.60;99.90
4856;DHT22;2442;48.676;7.986;2022-10-04T12:00:40;14.60;99.90
4856;DHT22;2442;48.676;7.986;2022-10-04T12:03:55;15.00;99.90
4856;DHT22;2442;48.676;7.986;2022-10-04T12:06:49;15.40;99.90
4856;DHT22;2442;48.676;7.986;2022-10-04T12:09:29;15.80;99.90
4856;DHT22;2442;48.676;7.986;2022-10-04T12:12:25;15.50;99.90
4856;DHT22;2442;48.676;7.986;2022-10-04T12:15:31;15.40;99.90
4856;DHT22;2442;48.676;7.986;2022-10-04T12:18:21;15.60;99.90
4856;DHT22;2442;48.676;7.986;2022-10-04T12:21:22;15.80;99.90
4856;DHT22;2442;48.676;7.986;2022-10-04T12:24:18;15.90;99.90
4856;DHT22;2442;48.676;7.986;2022-10-04T12:27:17;15.80;99.90
4856;DHT22;2442;48.676;7.986;2022-10-04T12:30:14;15.70;99.90
4856;DHT22;2442;48.676;7.986;2022-10-04T12:32:58;16.60;99.90
4856;DHT22;2442;48.676;7.986;2022-10-04T12:35:56;16.50;99.90
4856;DHT22;2442;48.676;7.986;2022-10-04T12:38:43;16.80;99.90
4856;DHT22;2442;48.676;7.986;2022-10-04T12:41:26;17.20;99.90
4856;DHT22;2442;48.676;7.986;2022-10-04T12:44:05;16.90;99.90
4856;DHT22;2442;48.676;7.986;2022-10-04T12:46:49;17.00;99.90
4856;DHT22;2442;48.676;7.986;2022-10-04T12:49:30;17.00;99.90
4856;DHT22;2442;48.676;7.986;2022-10-04T12:52:10;17.10;99.90
4856;DHT22;2442;48.676;7.986;2022-10-04T12:54:43;17.40;99.90
4856;DHT22;2442;48.676;7.986;2022-10-04T12:57:36;17.40;99.90
4856;DHT22;2442;48.676;7.986;2022-10-04T13:00:16;17.40;99.90
4856;DHT22;2442;48.676;7.986;2022-10-04T13:03:11;17.40;99.90
4856;DHT22;2442;48.676;7.986;2022-10-04T13:05:55;17.40;99.90
4856;DHT22;2442;48.676;7.986;2022-10-04T13:08:47;17.30;99.90
4856;DHT22;2442;48.676;7.986;2022-10-04T13:11:40;17.50;99.90
4856;DHT22;2442;48.676;7.986;2022-10-04T13:14:37;17.80;99.90
4856;DHT22;2442;48.676;7.986;2022-10-04T13:17:17;18.20;99.90
4856;DHT22;2442;48.676;7.986;2022-10-04T13:19:56;18.40;99.90
4856;DHT22;2442;48.676;7.986;2022-10-04T13:22:43;18.30;99.90
4856;DHT22;2442;48.676;7.986;2022-10-04T13:25:35;18.30;99.90
4856;DHT22;2442;48.676;7.986;2022-10-04T13:28:24;17.60;99.90
4856;DHT22;2442;48.676;7.986;2022-10-04T13:30:59;17.10;99.90
4856;DHT22;2442;48.676;7.986;2022-10-04T13:33:35;17.10;99.90
4856;DHT22;2442;48.676;7.986;2022-10-04T13:36:11;17.50;99.90
4856;DHT22;2442;48.676;7.986;2022-10-04T13:39:03;17.60;99.90
4856;DHT22;2442;48.676;7.986;2022-10-04T13:42:08;17.60;99.90
4856;DHT22;2442;48.676;7.986;2022-10-04T13:44:55;17.30;99.90
4856;DHT22;2442;48.676;7.986;2022-10-04T13:47:41;17.20;99.90
4856;DHT22;2442;48.676;7.986;2022-10-04T13:50:33;17.30;99.90
4856;DHT22;2442;48.676;7.986;2022-10-04T13:53:19;17.40;99.90
4856;DHT22;2442;48.676;7.986;2022-10-04T13:56:29;17.60;99.90
4856;DHT22;2442;48.676;7.986;2022-10-04T13:59:22;17.80;99.90
4856;DHT22;2442;48.676;7.986;2022-10-04T14:05:43;17.90;99.90
4856;DHT22;2442;48.676;7.986;2022-10-04T14:09:06;17.80;99.90
4856;DHT22;2442;48.676;7.986;2022-10-04T14:15:31;17.90;99.90
4856;DHT22;2442;48.676;7.986;2022-10-04T14:18:43;17.70;99.90
4856;DHT22;2442;48.676;7.986;2022-10-04T14:25:06;17.70;99.90
4856;DHT22;2442;48.676;7.986;2022-10-04T14:28:15;17.50;99.90
4856;DHT22;2442;48.676;7.986;2022-10-04T14:31:11;17.70;99.90
4856;DHT22;2442;48.676;7.986;2022-10-04T14:40:42;17.80;99.90
4856;DHT22;2442;48.676;7.986;2022-10-04T14:43:43;17.70;99.90
4856;DHT22;2442;48.676;7.986;2022-10-04T14:46:41;17.70;99.90
4856;DHT22;2442;48.676;7.986;2022-10-04T14:49:24;17.70;99.90
4856;DHT22;2442;48.676;7.986;2022-10-04T14:52:11;17.50;99.90
4856;DHT22;2442;48.676;7.986;2022-10-04T14:54:51;17.50;99.90
4856;DHT22;2442;48.676;7.986;2022-10-04T14:57:35;17.40;99.90
4856;DHT22;2442;48.676;7.986;2022-10-04T15:00:18;17.40;99.90
4856;DHT22;2442;48.676;7.986;2022-10-04T15:06:07;17.50;99.90
4856;DHT22;2442;48.676;7.986;2022-10-04T15:11:55;17.70;99.90
4856;DHT22;2442;48.676;7.986;2022-10-04T15:14:33;17.80;99.90
4856;DHT22;2442;48.676;7.986;2022-10-04T15:17:07;17.80;99.90
4856;DHT22;2442;48.676;7.986;2022-10-04T15:19:58;17.80;99.90
4856;DHT22;2442;48.676;7.986;2022-10-04T15:22:36;17.70;99.90
4856;DHT22;2442;48.676;7.986;2022-10-04T15:25:37;17.70;99.90
4856;DHT22;2442;48.676;7.986;2022-10-04T15:28:33;17.80;99.90
4856;DHT22;2442;48.676;7.986;2022-10-04T15:31:21;17.80;99.90
4856;DHT22;2442;48.676;7.986;2022-10-04T15:33:58;17.70;99.90
4856;DHT22;2442;48.676;7.986;2022-10-04T15:49:21;17.50;99.90
4856;DHT22;2442;48.676;7.986;2022-10-04T15:52:11;17.40;99.90
4856;DHT22;2442;48.676;7.986;2022-10-04T15:55:03;17.40;99.90
4856;DHT22;2442;48.676;7.986;2022-10-04T15:57:49;17.40;99.90
4856;DHT22;2442;48.676;7.986;2022-10-04T16:00:50;17.30;99.90
4856;DHT22;2442;48.676;7.986;2022-10-04T16:03:31;17.20;99.90
4856;DHT22;2442;48.676;7.986;2022-10-04T16:06:10;17.10;99.90
4856;DHT22;2442;48.676;7.986;2022-10-04T16:09:07;17.00;99.90
4856;DHT22;2442;48.676;7.986;2022-10-04T16:11:52;17.00;99.90
4856;DHT22;2442;48.676;7.986;2022-10-04T16:14:34;16.80;99.90
4856;DHT22;2442;48.676;7.986;2022-10-04T16:17:22;16.50;99.90
4856;DHT22;2442;48.676;7.986;2022-10-04T16:20:11;16.80;99.90
4856;DHT22;2442;48.676;7.986;2022-10-04T16:23:25;16.60;99.90
4856;DHT22;2442;48.676;7.986;2022-10-04T16:25:58;16.20;99.90
4856;DHT22;2442;48.676;7.986;2022-10-04T16:31:49;15.90;99.90
4856;DHT22;2442;48.676;7.986;2022-10-04T16:37:17;15.80;99.90
4856;DHT22;2442;48.676;7.986;2022-10-04T16:39:54;15.70;99.90
4856;DHT22;2442;48.676;7.986;2022-10-04T16:42:37;15.60;99.90
4856;DHT22;2442;48.676;7.986;2022-10-04T16:45:41;15.50;99.90
4856;DHT22;2442;48.676;7.986;2022-10-04T16:48:24;15.40;99.90
4856;DHT22;2442;48.676;7.986;2022-10-04T16:57:35;14.60;99.90
4856;DHT22;2442;48.676;7.986;2022-10-04T17:00:25;14.50;99.90
4856;DHT22;2442;48.676;7.986;2022-10-04T17:03:12;14.30;99.90
4856;DHT22;2442;48.676;7.986;2022-10-04T17:08:52;14.00;99.90
4856;DHT22;2442;48.676;7.986;2022-10-04T17:11:39;14.00;99.90
4856;DHT22;2442;48.676;7.986;2022-10-04T17:17:31;13.70;99.90
4856;DHT22;2442;48.676;7.986;2022-10-04T17:20:14;13.60;99.90
4856;DHT22;2442;48.676;7.986;2022-10-04T17:22:58;13.60;99.90
4856;DHT22;2442;48.676;7.986;2022-10-04T17:25:38;13.20;99.90
4856;DHT22;2442;48.676;7.986;2022-10-04T17:28:19;13.00;99.90
4856;DHT22;2442;48.676;7.986;2022-10-04T17:30:59;13.00;99.90
4856;DHT22;2442;48.676;7.986;2022-10-04T17:33:47;13.10;99.90
4856;DHT22;2442;48.676;7.986;2022-10-04T17:36:37;13.00;99.90
4856;DHT22;2442;48.676;7.986;2022-10-04T17:39:20;12.80;99.90
4856;DHT22;2442;48.676;7.986;2022-10-04T17:42:05;12.50;99.90
4856;DHT22;2442;48.676;7.986;2022-10-04T17:45:03;12.30;99.90
4856;DHT22;2442;48.676;7.986;2022-10-04T17:47:56;12.30;99.90
4856;DHT22;2442;48.676;7.986;2022-10-04T17:50:50;12.30;99.90
4856;DHT22;2442;48.676;7.986;2022-10-04T17:53:44;12.20;99.90
4856;DHT22;2442;48.676;7.986;2022-10-04T17:56:33;12.30;99.90
4856;DHT22;2442;48.676;7.986;2022-10-04T17:59:08;12.20;99.90
4856;DHT22;2442;48.676;7.986;2022-10-04T18:01:41;12.10;99.90
4856;DHT22;2442;48.676;7.986;2022-10-04T18:04:18;12.00;99.90
4856;DHT22;2442;48.676;7.986;2022-10-04T18:06:50;11.90;99.90
4856;DHT22;2442;48.676;7.986;2022-10-04T18:09:23;12.00;99.90
4856;DHT22;2442;48.676;7.986;2022-10-04T18:11:55;11.90;99.90
4856;DHT22;2442;48.676;7.986;2022-10-04T18:14:49;11.80;99.90
4856;DHT22;2442;48.676;7.986;2022-10-04T18:17:28;11.70;99.90
4856;DHT22;2442;48.676;7.986;2022-10-04T18:20:16;11.70;99.90
4856;DHT22;2442;48.676;7.986;2022-10-04T18:22:48;11.70;99.90
4856;DHT22;2442;48.676;7.986;2022-10-04T18:25:18;11.80;99.90
4856;DHT22;2442;48.676;7.986;2022-10-04T18:27:49;11.70;99.90
4856;DHT22;2442;48.676;7.986;2022-10-04T18:30:19;11.50;99.90
4856;DHT22;2442;48.676;7.986;2022-10-04T18:32:49;11.50;99.90
4856;DHT22;2442;48.676;7.986;2022-10-04T18:35:24;11.30;99.90
4856;DHT22;2442;48.676;7.986;2022-10-04T18:37:54;11.20;99.90
4856;DHT22;2442;48.676;7.986;2022-10-04T18:40:23;11.10;99.90
4856;DHT22;2442;48.676;7.986;2022-10-04T18:42:54;11.10;99.90
4856;DHT22;2442;48.676;7.986;2022-10-04T18:45:25;11.10;99.90
4856;DHT22;2442;48.676;7.986;2022-10-04T18:47:54;11.10;99.90
4856;DHT22;2442;48.676;7.986;2022-10-04T18:50:31;11.10;99.90
4856;DHT22;2442;48.676;7.986;2022-10-04T18:53:20;11.10;99.90
4856;DHT22;2442;48.676;7.986;2022-10-04T18:55:58;11.20;99.90
4856;DHT22;2442;48.676;7.986;2022-10-04T18:58:36;11.10;99.90
4856;DHT22;2442;48.676;7.986;2022-10-04T19:01:46;11.00;99.90
4856;DHT22;2442;48.676;7.986;2022-10-04T19:04:40;10.90;99.90
4856;DHT22;2442;48.676;7.986;2022-10-04T19:07:14;10.80;99.90
4856;DHT22;2442;48.676;7.986;2022-10-04T19:10:00;10.70;99.90
4856;DHT22;2442;48.676;7.986;2022-10-04T19:12:47;10.70;99.90
4856;DHT22;2442;48.676;7.986;2022-10-04T19:15:30;10.60;99.90
4856;DHT22;2442;48.676;7.986;2022-10-04T19:18:21;10.60;99.90
4856;DHT22;2442;48.676;7.986;2022-10-04T19:20:59;10.70;99.90
4856;DHT22;2442;48.676;7.986;2022-10-04T19:23:42;10.60;99.90
4856;DHT22;2442;48.676;7.986;2022-10-04T19:26:19;10.40;99.90
4856;DHT22;2442;48.676;7.986;2022-10-04T19:28:58;10.30;99.90
4856;DHT22;2442;48.676;7.986;2022-10-04T19:31:35;10.30;99.90
4856;DHT22;2442;48.676;7.986;2022-10-04T19:34:09;10.20;99.90
4856;DHT22;2442;48.676;7.986;2022-10-04T19:36:45;10.30;99.90
4856;DHT22;2442;48.676;7.986;2022-10-04T19:39:33;10.40;99.90
4856;DHT22;2442;48.676;7.986;2022-10-04T19:42:11;10.30;99.90
4856;DHT22;2442;48.676;7.986;2022-10-04T19:45:00;10.10;99.90
4856;DHT22;2442;48.676;7.986;2022-10-04T19:47:45;10.20;99.90
4856;DHT22;2442;48.676;7.986;2022-10-04T19:50:19;10.20;99.90
4856;DHT22;2442;48.676;7.986;2022-10-04T19:52:50;10.20;99.90